createdAt,value
2018-12-05T00:02:26.157Z,7.17
2018-12-05T00:04:54.398Z,6.50
2018-12-05T00:07:22.629Z,6.67
2018-12-05T00:09:50.873Z,6.80
2018-12-05T00:12:19.183Z,5.77
2018-12-05T00:14:53.411Z,6.50
2018-12-05T00:20:19.522Z,5.30
2018-12-05T00:22:53.167Z,4.97
2018-12-05T00:25:27.113Z,6.40
2018-12-05T00:28:01.982Z,5.40
2018-12-05T00:30:39.807Z,6.30
2018-12-05T00:33:11.635Z,5.97
2018-12-05T00:35:45.257Z,5.53
2018-12-05T00:38:19.278Z,5.93
2018-12-05T00:40:49.241Z,6.97
2018-12-05T00:43:29.910Z,10.47
2018-12-05T00:48:31.725Z,12.53
2018-12-05T00:51:12.509Z,13.07
2018-12-05T00:56:37.748Z,6.90
2018-12-05T00:59:06.126Z,16.57
2018-12-05T01:01:37.262Z,8.93
2018-12-05T01:04:15.698Z,5.63
2018-12-05T01:06:49.651Z,5.67
2018-12-05T01:09:25.658Z,6.40
2018-12-05T01:11:59.726Z,5.67
2018-12-05T01:14:33.511Z,5.43
2018-12-05T01:17:07.753Z,6.00
2018-12-05T01:19:41.537Z,6.17
2018-12-05T01:22:15.438Z,5.20
2018-12-05T01:24:49.527Z,5.73
2018-12-05T01:27:23.683Z,5.87
2018-12-05T01:30:01.667Z,5.43
2018-12-05T01:32:37.959Z,5.97
2018-12-05T01:35:11.644Z,6.47
2018-12-05T01:40:49.053Z,6.23
2018-12-05T01:43:23.058Z,6.23
2018-12-05T01:45:55.381Z,6.87
2018-12-05T01:48:29.889Z,6.57
2018-12-05T01:51:04.169Z,7.67
2018-12-05T01:53:32.392Z,7.80
2018-12-05T01:56:00.606Z,7.27
2018-12-05T01:58:32.749Z,5.77
2018-12-05T02:01:13.568Z,6.00
2018-12-05T02:03:41.872Z,5.97
2018-12-05T02:06:10.308Z,6.33
2018-12-05T02:08:38.595Z,7.50
2018-12-05T02:11:06.826Z,6.77
2018-12-05T02:13:35.026Z,7.23
2018-12-05T02:16:03.254Z,7.10
2018-12-05T02:18:31.500Z,6.03
2018-12-05T02:20:59.745Z,5.67
2018-12-05T02:23:27.946Z,5.80
2018-12-05T02:25:56.168Z,5.97
2018-12-05T02:28:24.391Z,5.90
2018-12-05T02:30:52.617Z,5.77
2018-12-05T02:33:20.997Z,5.40
2018-12-05T02:35:49.273Z,5.33
2018-12-05T02:38:17.462Z,5.80
2018-12-05T02:40:46.405Z,4.80
2018-12-05T02:43:14.725Z,4.90
2018-12-05T02:45:42.978Z,5.00
2018-12-05T02:48:11.281Z,5.43
2018-12-05T02:50:39.570Z,5.37
2018-12-05T02:53:07.827Z,5.47
2018-12-05T02:55:36.154Z,5.40
2018-12-05T02:58:04.462Z,5.73
2018-12-05T03:00:32.800Z,5.23
2018-12-05T03:03:01.055Z,4.73
2018-12-05T03:05:29.329Z,4.90
2018-12-05T03:07:57.574Z,4.63
2018-12-05T03:10:25.803Z,5.07
2018-12-05T03:12:54.020Z,4.97
2018-12-05T03:15:22.272Z,4.73
2018-12-05T03:17:53.587Z,5.03
2018-12-05T03:20:27.842Z,4.70
2018-12-05T03:29:01.656Z,4.67
2018-12-05T03:31:39.607Z,4.17
2018-12-05T03:34:11.254Z,4.47
2018-12-05T03:36:45.220Z,4.87
2018-12-05T03:39:16.720Z,4.23
2018-12-05T03:41:48.595Z,4.57
2018-12-05T03:47:19.242Z,4.33
2018-12-05T03:52:17.942Z,4.13
2018-12-05T03:54:52.183Z,4.50
2018-12-05T03:57:30.303Z,4.03
2018-12-05T04:00:04.363Z,3.90
2018-12-05T04:02:35.991Z,3.90
2018-12-05T04:05:07.976Z,4.53
2018-12-05T04:07:44.368Z,4.20
2018-12-05T04:10:22.183Z,3.97
2018-12-05T04:12:56.080Z,3.97
2018-12-05T04:15:30.142Z,4.33
2018-12-05T04:18:08.117Z,4.37
2018-12-05T04:20:55.242Z,4.33
2018-12-05T04:23:26.680Z,4.30
2018-12-05T04:26:01.380Z,3.67
2018-12-05T04:28:35.342Z,4.20
2018-12-05T04:31:13.090Z,3.70
2018-12-05T04:33:47.181Z,4.07
2018-12-05T04:36:20.949Z,3.60
2018-12-05T04:38:54.822Z,4.40
2018-12-05T04:41:28.797Z,4.20
2018-12-05T04:46:53.743Z,3.57
2018-12-05T04:49:28.066Z,3.77
2018-12-05T04:52:02.682Z,3.70
2018-12-05T05:02:29.727Z,3.33
2018-12-05T05:04:57.944Z,3.60
2018-12-05T05:07:26.133Z,4.17
2018-12-05T05:09:54.314Z,3.90
2018-12-05T05:12:22.538Z,3.37
2018-12-05T05:14:50.736Z,3.90
2018-12-05T05:17:24.431Z,4.07
2018-12-05T05:19:52.650Z,3.80
2018-12-05T05:25:18.108Z,5.13
2018-12-05T05:27:59.072Z,4.43
2018-12-05T05:30:27.261Z,4.57
2018-12-05T05:33:02.854Z,4.03
2018-12-05T05:35:36.749Z,4.60
2018-12-05T05:38:04.979Z,4.33
2018-12-05T05:40:33.168Z,3.87
2018-12-05T05:43:01.390Z,4.47
2018-12-05T05:45:29.574Z,4.30
2018-12-05T05:47:57.840Z,4.70
2018-12-05T05:50:26.107Z,3.73
2018-12-05T05:52:54.411Z,4.20
2018-12-05T05:55:22.694Z,4.13
2018-12-05T05:57:50.941Z,3.97
2018-12-05T06:00:19.143Z,5.20
2018-12-05T06:02:47.346Z,4.93
2018-12-05T06:05:15.578Z,4.17
2018-12-05T06:07:43.787Z,4.23
2018-12-05T06:10:11.989Z,3.77
2018-12-05T06:12:40.296Z,3.43
2018-12-05T06:15:09.218Z,3.63
2018-12-05T06:17:37.522Z,3.50
2018-12-05T06:20:05.850Z,5.13
2018-12-05T06:22:34.063Z,3.97
2018-12-05T06:25:02.239Z,3.87
2018-12-05T06:27:30.470Z,4.27
2018-12-05T06:29:58.600Z,3.57
2018-12-05T06:32:26.747Z,3.97
2018-12-05T06:34:54.858Z,4.03
2018-12-05T06:37:23.118Z,4.00
2018-12-05T06:39:51.243Z,3.83
2018-12-05T06:42:19.515Z,4.23
2018-12-05T06:44:47.679Z,4.37
2018-12-05T06:47:15.807Z,4.43
2018-12-05T06:49:44.016Z,4.13
2018-12-05T06:52:12.147Z,3.73
2018-12-05T06:54:40.291Z,4.40
2018-12-05T06:57:08.510Z,4.30
2018-12-05T06:59:36.650Z,4.03
2018-12-05T07:02:05.031Z,3.90
2018-12-05T07:04:33.187Z,5.40
2018-12-05T07:07:01.327Z,4.43
2018-12-05T07:09:29.665Z,4.90
2018-12-05T07:11:57.787Z,4.87
2018-12-05T07:14:25.954Z,4.77
2018-12-05T07:16:54.066Z,4.90
2018-12-05T07:19:22.224Z,5.13
2018-12-05T07:21:50.417Z,4.97
2018-12-05T07:24:18.569Z,4.63
2018-12-05T07:26:46.719Z,5.00
2018-12-05T07:29:14.866Z,4.93
2018-12-05T07:31:42.999Z,4.77
2018-12-05T07:34:11.146Z,5.10
2018-12-05T07:36:39.293Z,4.80
2018-12-05T07:39:08.335Z,4.43
2018-12-05T07:41:36.458Z,4.63
2018-12-05T07:44:04.683Z,5.07
2018-12-05T07:46:32.915Z,4.33
2018-12-05T07:49:01.051Z,4.60
2018-12-05T07:51:29.179Z,5.20
2018-12-05T07:53:57.328Z,4.70
2018-12-05T07:56:25.450Z,4.47
2018-12-05T07:58:53.590Z,4.97
2018-12-05T08:01:21.802Z,5.30
2018-12-05T08:03:49.951Z,5.20
2018-12-05T08:06:18.182Z,5.00
2018-12-05T08:08:46.495Z,4.63
2018-12-05T08:11:14.690Z,3.93
2018-12-05T08:13:42.878Z,4.27
2018-12-05T08:16:11.101Z,4.60
2018-12-05T08:18:39.311Z,4.30
2018-12-05T08:21:07.518Z,4.17
2018-12-05T08:23:35.726Z,4.40
2018-12-05T08:26:04.022Z,4.40
2018-12-05T08:28:32.206Z,4.17
2018-12-05T08:31:00.411Z,4.40
2018-12-05T08:33:28.774Z,4.50
2018-12-05T08:35:56.999Z,4.67
2018-12-05T08:38:25.190Z,4.30
2018-12-05T08:40:53.398Z,4.60
2018-12-05T08:43:21.582Z,4.43
2018-12-05T08:45:49.870Z,4.40
2018-12-05T08:48:18.063Z,4.10
2018-12-05T08:50:46.266Z,4.30
2018-12-05T08:53:14.452Z,5.33
2018-12-05T08:55:42.654Z,4.03
2018-12-05T08:58:10.838Z,4.83
2018-12-05T09:00:39.129Z,4.33
2018-12-05T09:03:07.327Z,4.30
2018-12-05T09:05:35.581Z,4.10
2018-12-05T09:08:03.854Z,4.87
2018-12-05T09:10:32.258Z,4.87
2018-12-05T09:13:00.581Z,4.53
2018-12-05T09:15:28.857Z,4.87
2018-12-05T09:17:57.033Z,4.30
2018-12-05T09:20:25.230Z,5.10
2018-12-05T09:22:53.410Z,4.50
2018-12-05T09:25:21.597Z,4.10
2018-12-05T09:27:49.794Z,4.43
2018-12-05T09:30:18.187Z,4.67
2018-12-05T09:32:46.361Z,4.90
2018-12-05T09:35:14.518Z,4.77
2018-12-05T09:37:42.710Z,4.60
2018-12-05T09:40:10.881Z,5.03
2018-12-05T09:42:39.733Z,4.60
2018-12-05T09:45:11.225Z,4.70
2018-12-05T09:47:39.411Z,7.63
2018-12-05T09:50:07.749Z,5.23
2018-12-05T09:52:35.941Z,7.73
2018-12-05T09:55:04.646Z,7.63
2018-12-05T09:57:32.949Z,6.60
2018-12-05T10:00:01.117Z,6.80
2018-12-05T10:02:29.306Z,5.00
2018-12-05T10:04:57.733Z,5.07
2018-12-05T10:07:25.926Z,5.23
2018-12-05T10:09:55.776Z,5.50
2018-12-05T10:12:23.970Z,4.97
2018-12-05T10:14:52.213Z,4.83
2018-12-05T10:17:20.398Z,5.70
2018-12-05T10:19:48.664Z,5.47
2018-12-05T10:22:16.845Z,5.33
2018-12-05T10:24:45.098Z,5.23
2018-12-05T10:27:13.371Z,5.40
2018-12-05T10:29:41.650Z,4.87
2018-12-05T10:32:09.917Z,5.43
2018-12-05T10:34:38.262Z,4.90
2018-12-05T10:37:06.450Z,5.27
2018-12-05T10:39:34.617Z,5.47
2018-12-05T10:42:02.808Z,4.80
2018-12-05T10:44:30.970Z,5.20
2018-12-05T10:46:59.325Z,5.57
2018-12-05T10:49:27.776Z,5.60
2018-12-05T10:51:55.968Z,5.67
2018-12-05T10:54:24.170Z,5.93
2018-12-05T10:56:52.386Z,5.50
2018-12-05T10:59:20.650Z,4.80
2018-12-05T11:01:54.159Z,5.33
2018-12-05T11:04:27.834Z,5.27
2018-12-05T11:07:01.477Z,5.00
2018-12-05T11:09:35.131Z,5.00
2018-12-05T11:12:08.869Z,4.73
2018-12-05T11:14:42.434Z,4.80
2018-12-05T11:17:16.052Z,5.00
2018-12-05T11:19:49.852Z,4.87
2018-12-05T11:22:23.466Z,4.73
2018-12-05T11:24:55.961Z,4.60
2018-12-05T11:27:24.240Z,5.10
2018-12-05T11:29:52.502Z,4.77
2018-12-05T11:32:20.694Z,4.90
2018-12-05T11:34:48.866Z,4.43
2018-12-05T11:37:17.042Z,4.63
2018-12-05T11:39:45.209Z,4.93
2018-12-05T11:42:13.407Z,4.67
2018-12-05T11:44:41.561Z,4.90
2018-12-05T11:47:10.030Z,4.87
2018-12-05T11:49:38.260Z,4.77
2018-12-05T11:52:06.417Z,4.30
2018-12-05T11:54:34.687Z,4.47
2018-12-05T11:57:03.014Z,5.20
2018-12-05T11:59:31.216Z,4.50
2018-12-05T12:01:59.399Z,4.33
2018-12-05T12:04:27.582Z,4.70
2018-12-05T12:06:55.814Z,4.20
2018-12-05T12:09:24.167Z,3.87
2018-12-05T12:11:52.411Z,4.87
2018-12-05T12:14:20.604Z,4.50
2018-12-05T12:16:48.790Z,4.40
2018-12-05T12:19:16.950Z,4.47
2018-12-05T12:21:45.189Z,4.43
2018-12-05T12:24:13.362Z,4.60
2018-12-05T12:26:41.528Z,4.27
2018-12-05T12:29:09.720Z,4.53
2018-12-05T12:31:37.900Z,4.10
2018-12-05T12:34:06.104Z,4.67
2018-12-05T12:36:34.270Z,5.30
2018-12-05T12:39:02.539Z,4.90
2018-12-05T12:41:30.696Z,4.83
2018-12-05T12:43:58.885Z,4.40
2018-12-05T12:46:27.049Z,5.07
2018-12-05T12:48:55.243Z,4.30
2018-12-05T12:51:23.741Z,4.73
2018-12-05T12:53:51.993Z,4.77
2018-12-05T12:56:20.158Z,5.63
2018-12-05T12:58:48.346Z,6.20
2018-12-05T13:01:16.607Z,5.03
2018-12-05T13:03:44.821Z,6.40
2018-12-05T13:06:13.022Z,7.77
2018-12-05T13:08:41.255Z,4.90
2018-12-05T13:11:10.057Z,3.70
2018-12-05T13:13:38.318Z,3.60
2018-12-05T13:16:06.506Z,4.27
2018-12-05T13:18:34.623Z,3.90
2018-12-05T13:21:02.727Z,4.37
2018-12-05T13:23:31.026Z,4.27
2018-12-05T13:25:59.211Z,3.97
2018-12-05T13:28:27.334Z,4.33
2018-12-05T13:30:55.534Z,3.60
2018-12-05T13:33:23.642Z,3.60
2018-12-05T13:35:51.783Z,3.90
2018-12-05T13:38:19.991Z,4.23
2018-12-05T13:40:48.106Z,3.83
2018-12-05T13:43:16.291Z,3.60
2018-12-05T13:45:44.415Z,3.63
2018-12-05T13:48:12.528Z,3.00
2018-12-05T13:50:40.646Z,3.97
2018-12-05T13:53:09.033Z,3.97
2018-12-05T13:55:37.215Z,3.60
2018-12-05T13:58:05.396Z,3.50
2018-12-05T14:00:33.676Z,4.23
2018-12-05T14:03:01.854Z,3.47
2018-12-05T14:05:29.945Z,3.43
2018-12-05T14:07:58.167Z,3.50
2018-12-05T14:10:26.359Z,3.53
2018-12-05T14:12:56.851Z,3.63
2018-12-05T14:15:25.034Z,3.50
2018-12-05T14:17:53.130Z,3.50
2018-12-05T14:20:21.268Z,4.83
2018-12-05T14:22:49.366Z,3.47
2018-12-05T14:25:17.491Z,3.97
2018-12-05T14:27:45.682Z,3.27
2018-12-05T14:30:14.043Z,3.30
2018-12-05T14:32:42.166Z,7.93
2018-12-05T14:35:10.284Z,5.87
2018-12-05T14:37:38.421Z,3.87
2018-12-05T14:40:06.682Z,4.03
2018-12-05T14:42:34.826Z,3.80
2018-12-05T14:45:03.014Z,4.30
2018-12-05T14:47:31.303Z,4.10
2018-12-05T14:49:59.459Z,4.47
2018-12-05T14:52:27.744Z,4.17
2018-12-05T14:54:56.105Z,4.27
2018-12-05T14:57:24.387Z,3.83
2018-12-05T14:59:52.590Z,4.20
2018-12-05T15:02:20.818Z,4.17
2018-12-05T15:04:49.018Z,4.07
2018-12-05T15:07:17.422Z,4.20
2018-12-05T15:09:45.595Z,4.10
2018-12-05T15:12:13.821Z,4.20
2018-12-05T15:14:42.114Z,3.87
2018-12-05T15:17:10.373Z,4.40
2018-12-05T15:19:38.557Z,3.80
2018-12-05T15:22:06.745Z,4.37
2018-12-05T15:24:34.997Z,4.27
2018-12-05T15:27:03.302Z,4.03
2018-12-05T15:29:31.509Z,3.97
2018-12-05T15:31:59.887Z,4.60
2018-12-05T15:34:28.128Z,4.30
2018-12-05T15:36:56.529Z,4.90
2018-12-05T15:39:24.701Z,4.90
2018-12-05T15:41:52.991Z,3.53
2018-12-05T15:44:21.158Z,3.90
2018-12-05T15:46:49.342Z,4.50
2018-12-05T15:49:18.218Z,4.17
2018-12-05T15:51:46.419Z,4.20
2018-12-05T15:54:14.584Z,4.27
2018-12-05T15:56:42.774Z,3.90
2018-12-05T15:59:11.017Z,3.80
2018-12-05T16:01:39.294Z,4.23
2018-12-05T16:04:07.540Z,4.50
2018-12-05T16:06:35.862Z,4.90
2018-12-05T16:09:06.226Z,4.73
2018-12-05T16:11:34.430Z,5.80
2018-12-05T16:14:02.765Z,5.60
2018-12-05T16:16:31.045Z,5.27
2018-12-05T16:18:59.222Z,4.90
2018-12-05T16:21:27.470Z,4.50
2018-12-05T16:23:55.810Z,5.07
2018-12-05T16:26:24.010Z,4.97
2018-12-05T16:28:52.206Z,5.13
2018-12-05T16:31:20.486Z,4.40
2018-12-05T16:33:48.696Z,4.70
2018-12-05T16:36:17.066Z,5.47
2018-12-05T16:38:45.281Z,5.70
2018-12-05T16:41:13.531Z,5.20
2018-12-05T16:43:42.858Z,5.97
2018-12-05T16:46:11.042Z,4.53
2018-12-05T16:48:39.262Z,5.10
2018-12-05T16:51:08.250Z,4.50
2018-12-05T16:53:36.446Z,5.17
2018-12-05T16:56:04.706Z,4.90
2018-12-05T16:58:32.986Z,5.60
2018-12-05T17:01:01.173Z,5.97
2018-12-05T17:03:29.449Z,4.93
2018-12-05T17:05:57.618Z,5.67
2018-12-05T17:08:25.945Z,5.07
2018-12-05T17:10:54.206Z,5.20
2018-12-05T17:13:22.412Z,7.03
2018-12-05T17:15:50.613Z,6.43
2018-12-05T17:18:18.901Z,6.90
2018-12-05T17:20:47.105Z,6.30
2018-12-05T17:23:15.352Z,6.57
2018-12-05T17:25:43.622Z,6.27
2018-12-05T17:28:11.894Z,6.07
2018-12-05T17:30:40.070Z,6.80
2018-12-05T17:33:08.493Z,5.80
2018-12-05T17:35:36.697Z,6.13
2018-12-05T17:38:04.960Z,9.77
2018-12-05T17:40:33.252Z,6.60
2018-12-05T17:43:01.841Z,9.27
2018-12-05T17:45:30.027Z,7.63
2018-12-05T17:47:58.273Z,8.13
2018-12-05T17:50:26.614Z,6.67
2018-12-05T17:52:54.911Z,8.55
2018-12-05T17:55:23.149Z,6.97
2018-12-05T17:57:51.468Z,6.97
2018-12-05T18:00:19.770Z,6.57
2018-12-05T18:02:48.117Z,6.73
2018-12-05T18:05:16.298Z,6.07
2018-12-05T18:07:44.502Z,4.87
2018-12-05T18:10:12.933Z,4.97
2018-12-05T18:12:41.126Z,4.33
2018-12-05T18:15:09.382Z,4.03
2018-12-05T18:17:37.731Z,3.90
2018-12-05T18:20:08.475Z,3.83
2018-12-05T18:22:36.658Z,3.50
2018-12-05T18:25:05.010Z,3.83
2018-12-05T18:27:33.609Z,3.40
2018-12-05T18:30:01.912Z,3.80
2018-12-05T18:32:30.154Z,3.50
2018-12-05T18:34:58.345Z,3.30
2018-12-05T18:37:26.517Z,3.70
2018-12-05T18:39:54.719Z,3.33
2018-12-05T18:42:22.973Z,3.60
2018-12-05T18:44:51.252Z,2.73
2018-12-05T18:47:19.693Z,3.70
2018-12-05T18:49:47.894Z,2.93
2018-12-05T18:52:16.169Z,2.90
2018-12-05T18:54:44.384Z,3.10
2018-12-05T18:57:12.670Z,3.80
2018-12-05T18:59:40.981Z,3.50
2018-12-05T19:02:09.239Z,3.30
2018-12-05T19:04:37.549Z,3.37
2018-12-05T19:07:05.806Z,3.70
2018-12-05T19:09:34.046Z,4.20
2018-12-05T19:12:02.312Z,5.77
2018-12-05T19:14:35.693Z,4.43
2018-12-05T19:17:04.074Z,3.10
2018-12-05T19:19:32.316Z,3.17
2018-12-05T19:22:00.516Z,3.03
2018-12-05T19:24:28.714Z,3.10
2018-12-05T19:26:57.158Z,4.80
2018-12-05T19:29:25.347Z,4.50
2018-12-05T19:31:53.777Z,3.70
2018-12-05T19:34:21.952Z,3.50
2018-12-05T19:36:50.218Z,5.37
2018-12-05T19:39:18.849Z,5.87
2018-12-05T19:41:47.059Z,4.57
2018-12-05T19:44:15.238Z,2.90
2018-12-05T19:46:43.428Z,2.90
2018-12-05T19:49:11.847Z,3.30
2018-12-05T19:51:40.106Z,4.00
2018-12-05T19:54:08.299Z,5.47
2018-12-05T19:56:36.773Z,5.07
2018-12-05T19:59:04.987Z,6.23
2018-12-05T20:01:33.237Z,6.10
2018-12-05T20:04:01.413Z,4.50
2018-12-05T20:06:29.642Z,3.40
2018-12-05T20:08:57.873Z,3.53
2018-12-05T20:11:26.186Z,3.20
2018-12-05T20:13:54.409Z,2.27
2018-12-05T20:16:22.601Z,2.60
2018-12-05T20:18:50.879Z,2.57
2018-12-05T20:21:19.067Z,3.60
2018-12-05T20:23:47.299Z,2.50
2018-12-05T20:26:15.520Z,2.07
2018-12-05T20:28:43.760Z,2.70
2018-12-05T20:31:11.969Z,3.50
2018-12-05T20:33:40.278Z,2.67
2018-12-05T20:36:08.449Z,2.10
2018-12-05T20:38:36.665Z,2.50
2018-12-05T20:41:04.922Z,2.30
2018-12-05T20:43:36.974Z,2.13
2018-12-05T20:49:06.085Z,2.70
2018-12-05T20:51:39.839Z,2.53
2018-12-05T20:54:13.672Z,2.50
2018-12-05T20:56:45.130Z,2.73
2018-12-05T20:59:26.133Z,1.87
2018-12-05T21:01:58.282Z,2.10
2018-12-05T21:04:32.589Z,2.10
2018-12-05T21:07:06.728Z,2.43
2018-12-05T21:09:40.491Z,2.20
2018-12-05T21:12:12.151Z,2.20
2018-12-05T21:14:50.087Z,2.13
2018-12-05T21:17:24.737Z,2.40
2018-12-05T21:20:02.990Z,2.50
2018-12-05T21:22:36.792Z,2.20
2018-12-05T21:25:10.934Z,3.03
2018-12-05T21:27:45.051Z,2.57
2018-12-05T21:30:19.399Z,2.70
2018-12-05T21:32:53.426Z,2.00
2018-12-05T21:35:27.566Z,2.50
2018-12-05T21:38:01.465Z,2.03
2018-12-05T21:40:35.736Z,2.37
2018-12-05T21:43:09.748Z,2.57
2018-12-05T21:48:47.719Z,2.10
2018-12-05T22:23:48.450Z,2.87
2018-12-05T22:26:22.709Z,2.40
2018-12-05T22:28:56.665Z,2.77
2018-12-05T22:31:34.638Z,2.40
2018-12-05T22:34:10.691Z,2.70
2018-12-05T22:36:44.734Z,2.60
2018-12-05T22:39:18.712Z,2.40
2018-12-05T22:41:56.905Z,2.93
2018-12-05T22:44:31.019Z,2.23
2018-12-05T22:47:04.877Z,2.90
2018-12-05T22:49:39.964Z,2.70
2018-12-05T22:52:16.945Z,2.43
2018-12-05T22:54:51.168Z,2.23
2018-12-05T22:57:38.791Z,3.10
2018-12-05T23:00:19.876Z,3.13
2018-12-05T23:02:51.294Z,2.73
2018-12-05T23:05:25.375Z,2.83
2018-12-05T23:07:59.188Z,3.20
2018-12-05T23:13:35.530Z,2.47
2018-12-05T23:16:06.782Z,2.20
2018-12-05T23:18:40.514Z,2.60
2018-12-05T23:21:15.035Z,2.20
2018-12-05T23:23:48.478Z,2.50
2018-12-05T23:26:22.382Z,2.10
2018-12-05T23:28:54.457Z,2.40
2018-12-05T23:31:30.972Z,2.50
2018-12-05T23:34:04.982Z,2.20
2018-12-05T23:36:39.058Z,2.40
2018-12-05T23:39:13.321Z,2.17
2018-12-05T23:41:47.062Z,1.93
2018-12-05T23:44:21.297Z,2.47
2018-12-05T23:46:55.371Z,2.43
2018-12-05T23:49:29.622Z,2.40
2018-12-05T23:52:01.008Z,2.20
2018-12-05T23:54:35.556Z,2.60
2018-12-05T23:57:09.734Z,2.70
2018-12-05T23:59:43.911Z,2.17
